Time;durP1;ratioP1;P1;durP2;ratioP2;P2;SDS_P1;SDS_P2;PMS_P1;PMS_P2;Temp;Humidity;BMP_temperature;BMP_pressure;BME280_temperature;BME280_humidity;BME280_pressure;Samples;Min_cycle;Max_cycle;Signal;HPM_P1;HPM_P2
2022/09/12 00:00:33;;;;;;;1.77;1.15;;;;;;;-144.47;100.00;61586.06;5012600;28;20418;-79
2022/09/12 00:02:58;;;;;;;2.28;1.30;;;;;;;-144.47;100.00;61586.06;4995536;28;20271;-79
2022/09/12 00:05:25;;;;;;;1.30;1.20;;;;;;;-144.47;100.00;61586.06;5012451;28;20034;-80
2022/09/12 00:07:51;;;;;;;1.17;1.08;;;;;;;-144.47;100.00;61586.06;5012801;28;20029;-81
2022/09/12 00:10:17;;;;;;;;;;;;;;;-144.47;100.00;61586.06;5013162;28;20494;-81
2022/09/12 00:12:42;;;;;;;;;;;;;;;-144.47;100.00;61586.06;5012527;28;20293;-81
2022/09/12 00:15:09;;;;;;;;;;;;;;;-144.47;100.00;61586.06;5013754;28;20339;-81
2022/09/12 00:17:35;;;;;;;;;;;;;;;-144.47;100.00;61586.06;5012656;28;20004;-82
2022/09/12 00:20:00;;;;;;;;;;;;;;;-144.47;100.00;61586.06;5013181;28;20056;-80
2022/09/12 00:22:26;;;;;;;;;;;;;;;-144.47;100.00;61586.06;5012689;28;19918;-82
2022/09/12 00:24:51;;;;;;;;;;;;;;;-144.47;100.00;61586.06;5012706;28;19925;-82
2022/09/12 00:27:16;;;;;;;;;;;;;;;-144.47;100.00;61586.06;4995927;28;19917;-81
2022/09/12 00:29:42;;;;;;;;;;;;;;;-144.47;100.00;61586.06;5013013;28;19925;-82
2022/09/12 00:32:07;;;;;;;;;;;;;;;-144.47;100.00;61586.06;5013070;28;19918;-81
2022/09/12 00:34:35;;;;;;;;;;;;;;;-144.47;100.00;61586.06;5014314;28;19921;-81
2022/09/12 00:37:00;;;;;;;;;;;;;;;-144.47;100.00;61586.06;5012609;28;20366;-82
2022/09/12 00:39:26;;;;;;;2.15;1.20;;;;;;;-144.47;100.00;61586.06;5012049;28;19924;-82
2022/09/12 00:41:51;;;;;;;1.42;1.27;;;;;;;-144.47;100.00;61586.06;5017763;28;20391;-81
2022/09/12 00:44:20;;;;;;;1.98;1.25;;;;;;;-144.47;100.00;61586.06;5017544;28;20030;-80
2022/09/12 00:46:47;;;;;;;1.33;1.15;;;;;;;-144.47;100.00;61586.06;4982723;28;20391;-80
2022/09/12 00:49:18;;;;;;;2.67;1.67;;;;;;;-144.47;100.00;61586.06;5011001;28;20041;-81
2022/09/12 00:51:53;;;;;;;1.67;1.58;;;;;;;-144.47;100.00;61586.06;5010266;28;20529;-79
2022/09/12 00:54:24;;;;;;;2.45;1.20;;;;;;;-144.47;100.00;61586.06;5008856;28;20100;-81
2022/09/12 00:56:54;;;;;;;2.17;1.60;;;;;;;-144.47;100.00;61586.06;5007578;28;20034;-81
2022/09/12 00:59:23;;;;;;;;;;;;;;;-144.47;100.00;61586.06;5005119;28;20095;-80
2022/09/12 01:01:50;;;;;;;3.92;2.08;;;;;;;-144.47;100.00;61586.06;5020835;28;19921;-78
2022/09/12 01:04:18;;;;;;;3.08;1.75;;;;;;;-144.47;100.00;61586.06;5010399;28;20030;-77
2022/09/12 01:06:45;;;;;;;1.85;1.30;;;;;;;-144.47;100.00;61586.06;5025758;28;20081;-78
2022/09/12 01:09:14;;;;;;;3.58;1.77;;;;;;;-144.47;100.00;61586.06;5011451;28;20034;-79
2022/09/12 01:11:41;;;;;;;3.33;1.50;;;;;;;-144.47;100.00;61586.06;5011316;28;20045;-79
2022/09/12 01:14:08;;;;;;;3.65;1.65;;;;;;;-144.47;100.00;61586.06;5010855;28;20522;-76
2022/09/12 01:16:37;;;;;;;2.90;1.50;;;;;;;-144.47;100.00;61586.06;5010909;28;20038;-78
2022/09/12 01:19:23;;;;;;;1.48;1.38;;;;;;;-144.47;100.00;61586.06;5011209;28;20269;-80
2022/09/12 01:21:58;;;;;;;3.83;1.65;;;;;;;-144.47;100.00;61586.06;5009071;28;20467;-79
2022/09/12 01:24:47;;;;;;;2.95;1.38;;;;;;;-144.47;100.00;61586.06;4990614;28;20082;-80
2022/09/12 01:27:21;;;;;;;1.58;1.23;;;;;;;-144.47;100.00;61586.06;5010502;28;20058;-78
2022/09/12 01:30:15;;;;;;;2.33;1.35;;;;;;;-144.47;100.00;61586.06;5024347;28;20105;-79
2022/09/12 01:33:05;;;;;;;2.65;1.58;;;;;;;-144.47;100.00;61586.06;4996090;28;20398;-77
2022/09/12 01:35:52;;;;;;;3.38;1.33;;;;;;;-144.47;100.00;61586.06;5010060;28;20041;-78
2022/09/12 01:38:35;;;;;;;2.25;1.45;;;;;;;-144.47;100.00;61586.06;5008718;28;20069;-77
2022/09/12 01:41:22;;;;;;;1.65;1.52;;;;;;;-144.47;100.00;61586.06;4989024;28;20073;-78
2022/09/12 01:44:11;;;;;;;1.50;1.38;;;;;;;-144.47;100.00;61586.06;5010392;28;20045;-78
2022/09/12 01:47:04;;;;;;;2.83;1.52;;;;;;;-144.47;100.00;61586.06;5008586;28;20088;-76
2022/09/12 01:49:48;;;;;;;1.73;1.63;;;;;;;-144.47;100.00;61586.06;4982672;28;20042;-78
2022/09/12 01:52:21;;;;;;;2.92;1.60;;;;;;;-144.47;100.00;61586.06;5010910;28;20041;-78
2022/09/12 01:54:53;;;;;;;3.08;1.80;;;;;;;-144.47;100.00;61586.06;4992412;28;20418;-76
2022/09/12 01:57:31;;;;;;;2.42;1.40;;;;;;;-144.47;100.00;61586.06;5009313;28;20099;-78
2022/09/12 02:00:02;;;;;;;1.50;1.40;;;;;;;-144.47;100.00;61586.06;5007451;28;20044;-79
2022/09/12 02:03:09;;;;;;;1.98;1.42;;;;;;;-144.47;100.00;61586.06;5006740;28;20460;-79
2022/09/12 02:05:50;;;;;;;2.38;1.38;;;;;;;-144.47;100.00;61586.06;5022524;28;20558;-79
2022/09/12 02:08:24;;;;;;;1.52;1.35;;;;;;;-144.47;100.00;61586.06;5009599;28;20038;-77
2022/09/12 02:10:56;;;;;;;3.15;1.30;;;;;;;-144.47;100.00;61586.06;5010205;28;20040;-79
2022/09/12 02:13:45;;;;;;;4.03;1.75;;;;;;;-144.47;100.00;61586.06;5000094;28;20488;-80
2022/09/12 02:16:28;;;;;;;2.47;1.48;;;;;;;-144.47;100.00;61586.06;5023521;28;20095;-78
2022/09/12 02:18:59;;;;;;;2.20;1.38;;;;;;;-144.47;100.00;61586.06;5006207;28;20406;-79
2022/09/12 02:21:26;;;;;;;2.58;1.50;;;;;;;-144.47;100.00;61586.06;5009546;28;20034;-79
2022/09/12 02:23:58;;;;;;;1.50;1.40;;;;;;;-144.47;100.00;61586.06;4992259;28;20030;-80
2022/09/12 02:26:31;;;;;;;1.77;1.50;;;;;;;-144.47;100.00;61586.06;5009504;28;20498;-80
2022/09/12 02:28:57;;;;;;;1.98;1.35;;;;;;;-144.47;100.00;61586.06;5013876;28;20030;-79
2022/09/12 02:31:38;;;;;;;1.70;1.25;;;;;;;-144.47;100.00;61586.06;5009609;28;20036;-80
2022/09/12 02:34:32;;;;;;;2.25;1.40;;;;;;;-144.47;100.00;61586.06;5021486;28;20393;-80
2022/09/12 02:37:09;;;;;;;1.92;1.70;;;;;;;-144.47;100.00;61586.06;5006980;28;20064;-81
2022/09/12 02:39:35;;;;;;;1.48;1.38;;;;;;;-144.47;100.00;61586.06;5009571;28;20083;-80
2022/09/12 02:42:02;;;;;;;1.38;1.27;;;;;;;-144.47;100.00;61586.06;5010051;28;20112;-79
2022/09/12 02:44:30;;;;;;;2.72;1.27;;;;;;;-144.47;100.00;61586.06;5009360;28;20127;-79
2022/09/12 02:47:16;;;;;;;2.10;1.55;;;;;;;-144.47;100.00;61586.06;4995691;28;20404;-78
2022/09/12 02:49:42;;;;;;;3.97;1.75;;;;;;;-144.47;100.00;61586.06;5008320;28;20069;-76
2022/09/12 02:52:08;;;;;;;1.95;1.70;;;;;;;-144.47;100.00;61586.06;4993014;28;20034;-78
2022/09/12 02:54:36;;;;;;;1.60;1.38;;;;;;;-144.47;100.00;61586.06;5009939;28;20057;-76
2022/09/12 02:57:02;;;;;;;2.72;1.52;;;;;;;-144.47;100.00;61586.06;5009750;28;20049;-78
2022/09/12 02:59:27;;;;;;;2.33;1.50;;;;;;;-144.47;100.00;61586.06;5009531;28;20037;-78
2022/09/12 03:02:11;;;;;;;2.35;1.90;;;;;;;-144.47;100.00;61586.06;5009921;28;20664;-77
2022/09/12 03:04:50;;;;;;;2.10;1.65;;;;;;;-144.47;100.00;61586.06;5008718;28;20057;-78
2022/09/12 03:07:45;;;;;;;2.40;1.30;;;;;;;-144.47;100.00;61586.06;5012150;28;20048;-78
2022/09/12 03:10:39;;;;;;;2.40;1.30;;;;;;;-144.47;100.00;61586.06;5006280;28;20129;-78
2022/09/12 03:13:13;;;;;;;2.15;1.40;;;;;;;-144.47;100.00;61586.06;5021949;28;20045;-78
2022/09/12 03:15:50;;;;;;;1.85;1.30;;;;;;;-144.47;100.00;61586.06;5013439;28;20390;-77
2022/09/12 03:18:25;;;;;;;1.92;1.40;;;;;;;-144.47;100.00;61586.06;5012889;28;20041;-79
2022/09/12 03:21:19;;;;;;;1.85;1.20;;;;;;;-144.47;100.00;61586.06;5009533;28;20042;-79
2022/09/12 03:23:59;;;;;;;2.20;1.50;;;;;;;-144.47;100.00;61586.06;5013094;28;20406;-78
2022/09/12 03:26:40;;;;;;;3.83;1.80;;;;;;;-144.47;100.00;61586.06;5011274;28;20117;-79
2022/09/12 03:29:06;;;;;;;4.32;1.55;;;;;;;-144.47;100.00;61586.06;5013053;28;20474;-79
2022/09/12 03:31:32;;;;;;;3.00;1.30;;;;;;;-144.47;100.00;61586.06;5012547;28;20072;-79
2022/09/12 03:34:01;;;;;;;4.38;1.50;;;;;;;-144.47;100.00;61586.06;4995257;28;20038;-79
2022/09/12 03:36:28;;;;;;;2.53;1.88;;;;;;;-144.47;100.00;61586.06;5012523;28;20528;-78
2022/09/12 03:38:54;;;;;;;2.55;1.42;;;;;;;-144.47;100.00;61586.06;5012658;28;20068;-80
2022/09/12 03:41:20;;;;;;;2.45;1.48;;;;;;;-144.47;100.00;61586.06;5012923;28;20053;-80
2022/09/12 03:43:45;;;;;;;1.63;1.38;;;;;;;-144.47;100.00;61586.06;5014221;28;20124;-79
2022/09/12 03:46:12;;;;;;;3.58;1.40;;;;;;;-144.47;100.00;61586.06;5013817;28;20041;-79
2022/09/12 03:48:38;;;;;;;1.88;1.70;;;;;;;-144.47;100.00;61586.06;5012449;28;20538;-79
2022/09/12 03:51:06;;;;;;;2.30;1.52;;;;;;;-144.47;100.00;61586.06;4994604;28;20344;-77
2022/09/12 03:53:32;;;;;;;2.00;1.80;;;;;;;-144.47;100.00;61586.06;5012010;28;20092;-79
2022/09/12 03:55:58;;;;;;;2.83;1.65;;;;;;;-144.47;100.00;61586.06;5012282;28;20030;-80
2022/09/12 03:58:29;;;;;;;1.92;1.80;;;;;;;-144.47;100.00;61586.06;5011981;28;20041;-80
2022/09/12 04:00:54;;;;;;;2.10;1.90;;;;;;;-144.47;100.00;61586.06;5012329;28;20029;-80
2022/09/12 04:03:20;;;;;;;3.72;1.75;;;;;;;-144.47;100.00;61586.06;5000723;28;20084;-78
2022/09/12 04:05:46;;;;;;;2.17;1.80;;;;;;;-144.47;100.00;61586.06;5011693;28;20041;-77
2022/09/12 04:08:12;;;;;;;2.50;2.30;;;;;;;-144.47;100.00;61586.06;5011936;28;20038;-80
2022/09/12 04:10:37;;;;;;;3.63;2.00;;;;;;;-144.47;100.00;61586.06;5010396;28;20025;-80
2022/09/12 04:13:03;;;;;;;2.78;2.10;;;;;;;-144.47;100.00;61586.06;5012225;28;20572;-82
2022/09/12 04:15:28;;;;;;;2.05;1.95;;;;;;;-144.47;100.00;61586.06;5012016;28;20025;-82
2022/09/12 04:17:54;;;;;;;3.25;1.90;;;;;;;-144.47;100.00;61586.06;5012008;28;20061;-78
2022/09/12 04:20:19;;;;;;;2.50;2.00;;;;;;;-144.47;100.00;61586.06;5011815;28;20021;-79
2022/09/12 04:22:45;;;;;;;3.53;2.10;;;;;;;-144.47;100.00;61586.06;5001943;28;20162;-78
2022/09/12 04:25:12;;;;;;;2.63;1.73;;;;;;;-144.47;100.00;61586.06;5010167;28;20044;-78
2022/09/12 04:27:37;;;;;;;3.03;2.83;;;;;;;-144.47;100.00;61586.06;5011371;28;20046;-81
2022/09/12 04:30:03;;;;;;;5.78;2.05;;;;;;;-144.47;100.00;61586.06;5012623;28;20038;-80
2022/09/12 04:32:30;;;;;;;1.88;1.58;;;;;;;-144.47;100.00;61586.06;5011649;28;20056;-80
2022/09/12 04:34:56;;;;;;;3.40;1.90;;;;;;;-144.47;100.00;61586.06;5011858;28;20034;-80
2022/09/12 04:37:22;;;;;;;4.63;1.88;;;;;;;-144.47;100.00;61586.06;5011636;28;20080;-81
2022/09/12 04:39:48;;;;;;;2.67;1.83;;;;;;;-144.47;100.00;61586.06;5011916;28;20067;-80
2022/09/12 04:42:14;;;;;;;5.78;1.90;;;;;;;-144.47;100.00;61586.06;4994719;28;20469;-80
2022/09/12 04:44:40;;;;;;;1.90;1.60;;;;;;;-144.47;100.00;61586.06;5011778;28;20061;-80
2022/09/12 04:47:06;;;;;;;1.80;1.70;;;;;;;-144.47;100.00;61586.06;5011796;28;20061;-81
2022/09/12 04:49:32;;;;;;;2.25;1.80;;;;;;;-144.47;100.00;61586.06;5011334;28;20068;-80
2022/09/12 04:51:58;;;;;;;4.43;1.60;;;;;;;-144.47;100.00;61586.06;5011811;28;20141;-80
2022/09/12 04:54:24;;;;;;;2.17;1.80;;;;;;;-144.47;100.00;61586.06;5011426;28;20059;-82
2022/09/12 04:56:50;;;;;;;4.93;1.73;;;;;;;-144.47;100.00;61586.06;5015892;28;20048;-80
2022/09/12 04:59:18;;;;;;;1.95;1.80;;;;;;;-144.47;100.00;61586.06;5023693;28;20041;-84
2022/09/12 05:01:43;;;;;;;2.22;1.55;;;;;;;-144.47;100.00;61586.06;5021542;28;20470;-83
2022/09/12 05:04:10;;;;;;;2.40;1.80;;;;;;;-144.47;100.00;61586.06;5012596;28;20030;-83
2022/09/12 05:06:37;;;;;;;2.10;1.90;;;;;;;-144.47;100.00;61586.06;5012677;28;20030;-84
2022/09/12 05:09:04;;;;;;;2.70;1.73;;;;;;;-144.47;100.00;61586.06;5012380;28;20057;-82
2022/09/12 05:11:33;;;;;;;3.17;1.90;;;;;;;-144.47;100.00;61586.06;5012547;28;20114;-84
2022/09/12 05:13:59;;;;;;;3.92;1.60;;;;;;;-144.47;100.00;61586.06;5015743;28;20053;-79
2022/09/12 05:16:27;;;;;;;3.00;1.60;;;;;;;-144.47;100.00;61586.06;5013550;28;20030;-80
2022/09/12 05:18:54;;;;;;;2.13;1.67;;;;;;;-144.47;100.00;61586.06;5011029;28;20045;-80
2022/09/12 05:21:22;;;;;;;5.55;2.03;;;;;;;-144.47;100.00;61586.06;4985592;28;20070;-76
2022/09/12 05:23:53;;;;;;;2.15;2.03;;;;;;;-144.47;100.00;61586.06;5011655;28;20037;-77
2022/09/12 05:26:20;;;;;;;2.13;2.00;;;;;;;-144.47;100.00;61586.06;5008841;28;20033;-83
2022/09/12 05:28:47;;;;;;;3.80;1.92;;;;;;;-144.47;100.00;61586.06;5011488;28;20053;-82
2022/09/12 05:31:15;;;;;;;2.28;2.08;;;;;;;-144.47;100.00;61586.06;5011740;28;20056;-83
2022/09/12 05:33:43;;;;;;;3.85;2.17;;;;;;;-144.47;100.00;61586.06;5009596;28;20125;-83
2022/09/12 05:36:12;;;;;;;2.25;2.05;;;;;;;-144.47;100.00;61586.06;5004903;28;20045;-83
2022/09/12 05:38:37;;;;;;;3.45;2.10;;;;;;;-144.47;100.00;61586.06;5012310;28;20044;-82
2022/09/12 05:41:08;;;;;;;2.92;2.55;;;;;;;-144.47;100.00;61586.06;5010044;28;20046;-82
2022/09/12 05:43:34;;;;;;;4.30;2.03;;;;;;;-144.47;100.00;61586.06;5011177;28;20030;-81
2022/09/12 05:46:01;;;;;;;2.50;2.10;;;;;;;-144.47;100.00;61586.06;5011403;28;20443;-82
2022/09/12 05:48:27;;;;;;;4.10;2.40;;;;;;;-144.47;100.00;61586.06;5007979;28;20030;-83
2022/09/12 05:51:00;;;;;;;3.22;2.28;;;;;;;-144.47;100.00;61586.06;4993367;28;20041;-79
2022/09/12 05:53:27;;;;;;;2.35;2.10;;;;;;;-144.47;100.00;61586.06;5022101;28;20026;-76
2022/09/12 05:56:13;;;;;;;2.33;1.98;;;;;;;-144.47;100.00;61586.06;5009932;28;20030;-75
2022/09/12 05:58:42;;;;;;;3.80;1.95;;;;;;;-144.47;100.00;61586.06;5010422;28;20029;-77
2022/09/12 06:01:11;;;;;;;4.93;2.10;;;;;;;-144.47;100.00;61586.06;5008864;28;20486;-76
2022/09/12 06:03:43;;;;;;;2.23;1.90;;;;;;;-144.47;100.00;61586.06;5009185;28;20038;-76
2022/09/12 06:06:12;;;;;;;2.40;2.20;;;;;;;-144.47;100.00;61586.06;5008443;28;20383;-76
2022/09/12 06:08:40;;;;;;;2.42;2.33;;;;;;;-144.47;100.00;61586.06;5009394;28;20030;-77
2022/09/12 06:11:06;;;;;;;2.42;1.95;;;;;;;-144.47;100.00;61586.06;5009448;28;20030;-75
2022/09/12 06:13:35;;;;;;;3.03;1.92;;;;;;;-144.47;100.00;61586.06;5009383;28;20478;-75
2022/09/12 06:16:07;;;;;;;2.00;1.83;;;;;;;-144.47;100.00;61586.06;4993852;28;20034;-76
2022/09/12 06:18:33;;;;;;;2.33;1.90;;;;;;;-144.47;100.00;61586.06;5009524;28;20026;-76
2022/09/12 06:21:07;;;;;;;3.63;2.13;;;;;;;-144.47;100.00;61586.06;4991895;28;20036;-75
2022/09/12 06:23:33;;;;;;;3.28;2.15;;;;;;;-144.47;100.00;61586.06;5009269;28;20029;-75
2022/09/12 06:25:59;;;;;;;2.13;1.92;;;;;;;-144.47;100.00;61586.06;5009342;28;20208;-77
2022/09/12 06:28:25;;;;;;;3.03;2.03;;;;;;;-144.47;100.00;61586.06;5008926;28;20124;-77
2022/09/12 06:30:51;;;;;;;6.20;2.63;;;;;;;-144.47;100.00;61586.06;5009421;28;20032;-78
2022/09/12 06:33:17;;;;;;;4.10;2.03;;;;;;;-144.47;100.00;61586.06;5009512;28;20034;-78
2022/09/12 06:35:43;;;;;;;3.88;2.20;;;;;;;-144.47;100.00;61586.06;5009615;28;20155;-76
2022/09/12 06:38:09;;;;;;;3.28;2.97;;;;;;;-144.47;100.00;61586.06;5009347;28;20049;-75
2022/09/12 06:40:42;;;;;;;4.28;2.10;;;;;;;-144.47;100.00;61586.06;5008990;28;20034;-78
2022/09/12 06:43:09;;;;;;;2.80;2.10;;;;;;;-144.47;100.00;61586.06;5009169;28;20549;-76
2022/09/12 06:45:36;;;;;;;4.07;2.38;;;;;;;-144.47;100.00;61586.06;5008662;28;20116;-79
2022/09/12 06:48:01;;;;;;;2.38;2.17;;;;;;;-144.47;100.00;61586.06;5009831;28;20180;-76
2022/09/12 06:50:27;;;;;;;3.17;2.17;;;;;;;-144.47;100.00;61586.06;5012822;28;20569;-77
2022/09/12 06:52:52;;;;;;;2.90;2.40;;;;;;;-144.47;100.00;61586.06;4995738;28;20038;-76
2022/09/12 06:55:18;;;;;;;4.63;3.38;;;;;;;-144.47;100.00;61586.06;5013117;28;20029;-77
2022/09/12 06:57:43;;;;;;;3.13;2.38;;;;;;;-144.47;100.00;61586.06;5012682;28;20050;-77
2022/09/12 07:00:10;;;;;;;2.97;2.63;;;;;;;-144.47;100.00;61586.06;5013337;28;20038;-77
2022/09/12 07:02:35;;;;;;;4.05;2.45;;;;;;;-144.47;100.00;61586.06;5012857;28;20084;-76
2022/09/12 07:05:01;;;;;;;2.63;2.38;;;;;;;-144.47;100.00;61586.06;5013000;28;20034;-75
2022/09/12 07:07:26;;;;;;;4.07;2.60;;;;;;;-144.47;100.00;61586.06;5013007;28;20708;-77
2022/09/12 07:09:52;;;;;;;2.50;2.30;;;;;;;-144.47;100.00;61586.06;5013313;28;20048;-78
2022/09/12 07:12:18;;;;;;;3.58;2.80;;;;;;;-144.47;100.00;61586.06;5013513;28;20386;-77
2022/09/12 07:14:43;;;;;;;4.65;2.90;;;;;;;-144.47;100.00;61586.06;5014949;28;20030;-78
2022/09/12 07:17:09;;;;;;;3.40;2.28;;;;;;;-144.47;100.00;61586.06;5008681;28;20030;-77
2022/09/12 07:19:34;;;;;;;3.00;2.55;;;;;;;-144.47;100.00;61586.06;5012258;28;20037;-79
2022/09/12 07:22:00;;;;;;;6.20;2.80;;;;;;;-144.47;100.00;61586.06;5013067;28;20034;-77
2022/09/12 07:24:25;;;;;;;7.43;2.60;;;;;;;-144.47;100.00;61586.06;5012596;28;20042;-77
2022/09/12 07:26:51;;;;;;;4.57;2.47;;;;;;;-144.47;100.00;61586.06;5012884;28;20444;-77
2022/09/12 07:29:17;;;;;;;5.72;2.53;;;;;;;-144.47;100.00;61586.06;5012790;28;20037;-77
2022/09/12 07:31:43;;;;;;;8.05;2.65;;;;;;;-144.47;100.00;61586.06;5012138;28;20542;-77
2022/09/12 07:34:08;;;;;;;4.82;2.60;;;;;;;-144.47;100.00;61586.06;5012487;28;20152;-75
2022/09/12 07:36:34;;;;;;;5.45;2.67;;;;;;;-144.47;100.00;61586.06;5014430;28;20052;-77
2022/09/12 07:39:00;;;;;;;3.50;2.40;;;;;;;-144.47;100.00;61586.06;4992572;28;20044;-78
2022/09/12 07:41:28;;;;;;;5.68;2.60;;;;;;;-144.47;100.00;61586.06;5012422;28;20038;-76
2022/09/12 07:43:55;;;;;;;8.25;3.33;;;;;;;-144.47;100.00;61586.06;5010845;28;20906;-78
2022/09/12 07:46:22;;;;;;;4.32;2.70;;;;;;;-144.47;100.00;61586.06;5011928;28;20072;-78
2022/09/12 07:48:50;;;;;;;4.00;2.65;;;;;;;-144.47;100.00;61586.06;5012702;28;20029;-78
2022/09/12 07:51:16;;;;;;;4.07;2.70;;;;;;;-144.47;100.00;61586.06;5012346;28;20026;-80
2022/09/12 07:53:42;;;;;;;3.47;2.90;;;;;;;-144.47;100.00;61586.06;5012464;28;20030;-78
2022/09/12 07:56:09;;;;;;;3.58;2.70;;;;;;;-144.47;100.00;61586.06;5012554;28;20399;-79
2022/09/12 07:58:36;;;;;;;4.40;3.00;;;;;;;-144.47;100.00;61586.06;5011303;28;20412;-78
2022/09/12 08:01:14;;;;;;;3.78;3.30;;;;;;;-144.47;100.00;61586.06;5009457;28;20412;-78
2022/09/12 08:03:44;;;;;;;4.35;3.58;;;;;;;-144.47;100.00;61586.06;5012308;28;20034;-79
2022/09/12 08:06:11;;;;;;;3.50;3.20;;;;;;;-144.47;100.00;61586.06;4993266;28;20124;-78
2022/09/12 08:08:38;;;;;;;3.85;3.20;;;;;;;-144.47;100.00;61586.06;5011952;28;20514;-78
2022/09/12 08:11:06;;;;;;;4.65;3.30;;;;;;;-144.47;100.00;61586.06;4992577;28;20512;-77
2022/09/12 08:13:35;;;;;;;3.78;3.47;;;;;;;-144.47;100.00;61586.06;5012061;28;20022;-77
2022/09/12 08:16:04;;;;;;;5.78;3.30;;;;;;;-144.47;100.00;61586.06;5011835;28;20142;-77
2022/09/12 08:18:31;;;;;;;5.63;4.40;;;;;;;-144.47;100.00;61586.06;5011813;28;20041;-77
2022/09/12 08:21:02;;;;;;;4.70;4.28;;;;;;;-144.47;100.00;61586.06;5011733;28;20026;-74
2022/09/12 08:23:28;;;;;;;6.50;4.00;;;;;;;-144.47;100.00;61586.06;5011650;28;20033;-77
2022/09/12 08:26:02;;;;;;;5.88;5.38;;;;;;;-144.47;100.00;61586.06;5011130;28;20497;-77
2022/09/12 08:28:29;;;;;;;5.97;5.38;;;;;;;-144.47;100.00;61586.06;5009443;28;20064;-78
2022/09/12 08:31:03;;;;;;;5.93;4.50;;;;;;;-144.47;100.00;61586.06;5011986;28;20108;-78
2022/09/12 08:33:32;;;;;;;6.47;4.45;;;;;;;-144.47;100.00;61586.06;5013910;28;20482;-78
2022/09/12 08:36:04;;;;;;;;;;;;;;;-144.47;100.00;61586.06;5011583;28;20549;-78
2022/09/12 08:38:29;;;;;;;;;;;;;;;-144.47;100.00;61586.06;5011699;28;20338;-77
2022/09/12 08:41:08;;;;;;;;;;;;;;;-144.47;100.00;61586.06;5012200;28;20020;-76
2022/09/12 08:43:45;;;;;;;;;;;;;;;-144.47;100.00;61586.06;5009840;28;20396;-76
2022/09/12 08:46:14;;;;;;;;;;;;;;;-144.47;100.00;61586.06;5011593;28;20314;-77
2022/09/12 08:48:40;;;;;;;;;;;;;;;-144.47;100.00;61586.06;5011401;28;19918;-76
2022/09/12 08:51:09;;;;;;;;;;;;;;;-144.47;100.00;61586.06;5011686;28;20386;-76
2022/09/12 08:53:36;;;;;;;;;;;;;;;-144.47;100.00;61586.06;5015093;28;19917;-77
2022/09/12 08:56:04;;;;;;;;;;;;;;;-144.47;100.00;61586.06;5011628;28;19918;-78
2022/09/12 08:58:33;;;;;;;;;;;;;;;-144.47;100.00;61586.06;5011470;28;19937;-77
2022/09/12 09:00:58;;;;;;;;;;;;;;;-144.47;100.00;61586.06;5012415;28;19924;-77
2022/09/12 09:04:09;;;;;;;7.03;5.75;;;;;;;-144.47;100.00;61586.06;5013594;28;19918;-77
2022/09/12 09:06:44;;;;;;;7.03;5.53;;;;;;;-144.47;100.00;61586.06;5010429;28;20033;-77
2022/09/12 09:09:22;;;;;;;7.03;5.60;;;;;;;-144.47;100.00;61586.06;5011389;28;20038;-76
2022/09/12 09:11:56;;;;;;;5.95;4.95;;;;;;;-144.47;100.00;61586.06;5010659;28;20454;-79
2022/09/12 09:14:55;;;;;;;6.63;5.25;;;;;;;-144.47;100.00;61586.06;5005634;28;20460;-79
2022/09/12 09:17:37;;;;;;;5.50;4.95;;;;;;;-144.47;100.00;61586.06;4981901;28;20537;-78
2022/09/12 09:20:25;;;;;;;7.32;5.00;;;;;;;-144.47;100.00;61586.06;5008881;28;20030;-79
2022/09/12 09:23:14;;;;;;;7.03;5.53;;;;;;;-144.47;100.00;61586.06;5010197;28;20756;-80
2022/09/12 09:25:50;;;;;;;5.70;5.20;;;;;;;-144.47;100.00;61586.06;5008735;28;20096;-75
2022/09/12 09:28:24;;;;;;;5.38;4.82;;;;;;;-144.47;100.00;61586.06;5008521;28;20045;-76
2022/09/12 09:30:49;;;;;;;5.93;4.88;;;;;;;-144.47;100.00;61586.06;5012263;28;20422;-79
2022/09/12 09:33:29;;;;;;;6.80;5.38;;;;;;;-144.47;100.00;61586.06;5009830;28;20029;-78
2022/09/12 09:36:19;;;;;;;4.88;4.47;;;;;;;-144.47;100.00;61586.06;5023053;28;20120;-78
2022/09/12 09:39:09;;;;;;;8.88;5.60;;;;;;;-144.47;100.00;61586.06;5009487;28;20419;-76
2022/09/12 09:41:55;;;;;;;7.97;5.65;;;;;;;-144.47;100.00;61586.06;5009154;28;20489;-75
2022/09/12 09:44:20;;;;;;;7.88;5.38;;;;;;;-144.47;100.00;61586.06;5023790;28;20896;-78
2022/09/12 09:46:53;;;;;;;6.37;5.43;;;;;;;-144.47;100.00;61586.06;5006908;28;20450;-77
2022/09/12 09:49:19;;;;;;;9.40;5.25;;;;;;;-144.47;100.00;61586.06;5007902;28;20435;-78
2022/09/12 09:51:44;;;;;;;6.25;5.20;;;;;;;-144.47;100.00;61586.06;5007308;28;20442;-76
2022/09/12 09:54:22;;;;;;;8.37;5.63;;;;;;;-144.47;100.00;61586.06;4991047;28;20437;-78
2022/09/12 09:56:48;;;;;;;5.03;4.18;;;;;;;-144.47;100.00;61586.06;5008918;28;20462;-77
2022/09/12 09:59:15;;;;;;;6.93;4.65;;;;;;;-144.47;100.00;61586.06;5009708;28;20470;-77
2022/09/12 10:01:47;;;;;;;5.82;4.65;;;;;;;-144.47;100.00;61586.06;5021986;28;20784;-75
2022/09/12 10:04:22;;;;;;;8.25;4.65;;;;;;;-144.47;100.00;61586.06;5010631;28;20041;-76
2022/09/12 10:06:51;;;;;;;6.55;4.75;;;;;;;-144.47;100.00;61586.06;5009969;28;20117;-76
2022/09/12 10:09:18;;;;;;;5.68;4.30;;;;;;;-144.47;100.00;61586.06;5012789;28;20029;-75
2022/09/12 10:11:44;;;;;;;5.18;4.57;;;;;;;-144.47;100.00;61586.06;5009932;28;20037;-76
2022/09/12 10:14:34;;;;;;;3.72;3.42;;;;;;;-144.47;100.00;61586.06;5010421;28;20067;-78
2022/09/12 10:17:02;;;;;;;6.55;3.70;;;;;;;-144.47;100.00;61586.06;5007967;28;20887;-76
2022/09/12 10:19:37;;;;;;;7.35;4.63;;;;;;;-144.47;100.00;61586.06;5009580;28;20057;-76
2022/09/12 10:22:05;;;;;;;3.95;3.33;;;;;;;-144.47;100.00;61586.06;5009957;28;20247;-76
2022/09/12 10:24:40;;;;;;;5.47;4.97;;;;;;;-144.47;100.00;61586.06;5009498;28;20112;-75
2022/09/12 10:27:12;;;;;;;5.07;3.50;;;;;;;-144.47;100.00;61586.06;5011179;28;20166;-78
2022/09/12 10:29:48;;;;;;;5.05;3.97;;;;;;;-144.47;100.00;61586.06;5009267;28;20025;-77
2022/09/12 10:32:35;;;;;;;4.95;3.85;;;;;;;-144.47;100.00;61586.06;5009677;28;20050;-78
2022/09/12 10:35:08;;;;;;;6.88;3.72;;;;;;;-144.47;100.00;61586.06;5010259;28;20042;-78
2022/09/12 10:37:39;;;;;;;5.45;4.05;;;;;;;-144.47;100.00;61586.06;4991508;28;20041;-77
2022/09/12 10:40:19;;;;;;;3.90;3.50;;;;;;;-144.47;100.00;61586.06;5008956;28;20458;-78
2022/09/12 10:42:47;;;;;;;4.03;3.33;;;;;;;-144.47;100.00;61586.06;5008323;28;20038;-79
2022/09/12 10:45:21;;;;;;;4.35;3.50;;;;;;;-144.47;100.00;61586.06;5009484;28;20049;-77
2022/09/12 10:47:47;;;;;;;6.10;3.58;;;;;;;-144.47;100.00;61586.06;5009652;28;20057;-75
2022/09/12 10:50:25;;;;;;;6.38;3.30;;;;;;;-144.47;100.00;61586.06;5009557;28;20030;-76
2022/09/12 10:53:11;;;;;;;6.10;4.10;;;;;;;-144.47;100.00;61586.06;5006169;28;20486;-76
2022/09/12 10:55:37;;;;;;;4.20;3.80;;;;;;;-144.47;100.00;61586.06;5006926;28;20044;-76
2022/09/12 10:58:35;;;;;;;4.40;3.03;;;;;;;-144.47;100.00;61586.06;5009523;28;20042;-75
2022/09/12 11:01:16;;;;;;;4.85;3.30;;;;;;;-144.47;100.00;61586.06;5006591;28;20038;-76
2022/09/12 11:03:50;;;;;;;3.67;3.05;;;;;;;-144.47;100.00;61586.06;5007569;28;20602;-77
2022/09/12 11:06:25;;;;;;;5.75;3.22;;;;;;;-144.47;100.00;61586.06;5008416;28;20033;-77
2022/09/12 11:08:59;;;;;;;6.55;3.17;;;;;;;-144.47;100.00;61586.06;5007532;28;20045;-76
2022/09/12 11:11:37;;;;;;;3.85;2.55;;;;;;;-144.47;100.00;61586.06;5009181;28;20375;-81
2022/09/12 11:14:44;;;;;;;2.90;2.53;;;;;;;-144.47;100.00;61586.06;5007403;28;20136;-82
2022/09/12 11:17:21;;;;;;;2.65;2.28;;;;;;;-144.47;100.00;61586.06;4945963;28;20092;-81
2022/09/12 11:20:02;;;;;;;3.25;1.80;;;;;;;-144.47;100.00;61586.06;5008837;28;20049;-78
2022/09/12 11:22:55;;;;;;;5.10;2.25;;;;;;;-144.47;100.00;61586.06;5009213;28;20506;-79
2022/09/12 11:25:35;;;;;;;5.10;2.13;;;;;;;-144.47;100.00;61586.06;5012383;28;20188;-82
2022/09/12 11:28:15;;;;;;;3.20;2.40;;;;;;;-144.47;100.00;61586.06;5006876;28;20128;-81
2022/09/12 11:30:59;;;;;;;;;;;;;;;-144.47;100.00;61586.06;5023320;28;20056;-79
2022/09/12 11:33:43;;;;;;;3.17;2.30;;;;;;;-144.47;100.00;61586.06;5006783;28;19920;-80